EBLG

Liège Airport

Liège, Belgium
METAR EBLG 250020Z 21011KT CAVOK 14/09 Q1010 NOSIG
Observed Flight Rules
Apr-25 @ 00:20 UTC (33 minutes ago) Visual Flight Rules
Wind Visibility Clouds
210° at 11 knots 10,000+ meters
  • Clear skies
Temperatures Readings
Current 14°C / 57°F
Dewpoint 9°C / 48°F
Humidity 72%
Altimeter 29.82" Hg
Pressure 1010 hPa
Elevation 178
METAR EBLG 250020Z 21011KT CAVOK 14/09 Q1010 NOSIG
Observed Flight Rules
Apr-25 @ 00:20 UTC
(33 minutes ago)
VFR
Wind Visibility
210° at 11 knots 10,000+ meters
Clouds
  • Clear skies
Temperature Dewpoint
14°C / 57°F 9°C / 48°F
Humidity Altimeter Pressure
72% 29.82" Hg 1010 hPa